DEKT2: Red River, Dekalb, TX

                                SHEF ID:       DEKT2     Red River near De Kalb, TX
STATION TYPE: Stream Gauge
Regulating: Stage = 23.70, Flow = 62933

PRECIP STAGE STAGE(2) RIV-FLOW BAT-LOAD
in ft ft cfs volt
Ccp-Rev Ccp-Rev Ccp-Rev Ccp-Rev Ccp-Rev
(America/Chicago)
03/22 00:00 0.00 7.87 ---- 2496 12.65
03/22 01:00 0.00 7.86 ---- 2483 12.65
03/22 02:00 0.00 7.85 ---- 2470 12.65
03/22 03:00 0.00 7.83 ---- 2444 12.65
03/22 04:00 0.00 7.82 ---- 2431 12.57
03/22 05:00 0.00 7.81 ---- 2418 12.57
03/22 06:00 0.00 7.80 ---- 2405 12.57
03/22 07:00 0.00 7.79 ---- 2392 12.57
03/22 08:00 0.00 7.78 ---- 2379 12.49
03/22 09:00 0.00 7.76 ---- 2353 13.44
03/22 10:00 0.00 7.69 ---- 2264 13.29
03/22 11:00 0.00 7.68 ---- 2251 13.21
03/22 12:00 0.00 7.66 ---- 2226 13.29
03/22 13:00 0.00 7.66 ---- 2226 13.29
03/22 14:00 0.00 7.65 ---- 2213 13.29
03/22 15:00 0.00 7.61 ---- 2164 13.29
03/22 16:00 0.00 7.63 ---- 2188 12.89
03/22 17:00 0.00 7.61 ---- 2164 12.81
03/22 18:00 0.00 7.62 ---- 2176 12.97
03/22 19:00 0.00 7.64 ---- 2201 12.81
03/22 20:00 0.00 7.64 ---- 2201 12.73
03/22 21:00 0.00 7.63 ---- 2188 12.73
03/22 22:00 0.00 7.63 ---- 2188 12.65
03/22 23:00 0.00 7.62 ---- 2176 12.65
Data processed at Mon 23Mar2026 04:30 GMT

NOTICE: If you are parsing this page

Please convert to using our Data API. Starting early 2026 we will be migrating to: https://water.usace.army.mil with modern pages rendered in JavaScript. When this migration completes you will no longer be able to scrape this page! CWMSDataAPI (CDA)

Timeseries IDs (TSIDs)

TSIDs used from left to right in the data table
DEKA.Precip-Inc.Total.1Hour.1Hour.Ccp-Rev
DEKA.Stage.Inst.1Hour.0.Ccp-Rev
DEKA.Stage-Alt.Inst.1Hour.0.Ccp-Rev
DEKA.Flow.Inst.1Hour.0.Ccp-Rev
DEKA.Volt-Battery Load.Inst.1Hour.0.Ccp-Rev

                            

All information presented herein is the property of the government of the United States of America and may be revised or deleted at any time without prior notice. Dissemination of this information without the expressed written consent of the Public Affairs Office, Tulsa District U.S. Army Corps of Engineers is strictly prohibited. These data are gathered electronically and, as presented, have NOT undergone any form of quality control. These data are NOT guaranteed to be valid or correct.